sensor_id;sensor_type;location;lat;lon;timestamp;P1;durP1;ratioP1;P2;durP2;ratioP2
33644;SDS011;19986;48.190;16.366;2024-03-07T00:01:32;57.35;;;53.75;;
33644;SDS011;19986;48.190;16.366;2024-03-07T00:03:58;58.00;;;54.42;;
33644;SDS011;19986;48.190;16.366;2024-03-07T00:06:24;58.00;;;54.50;;
33644;SDS011;19986;48.190;16.366;2024-03-07T00:08:50;57.47;;;53.95;;
33644;SDS011;19986;48.190;16.366;2024-03-07T00:11:15;57.83;;;54.28;;
33644;SDS011;19986;48.190;16.366;2024-03-07T00:13:42;53.47;;;50.25;;
33644;SDS011;19986;48.190;16.366;2024-03-07T00:16:09;57.42;;;53.83;;
33644;SDS011;19986;48.190;16.366;2024-03-07T00:18:35;59.15;;;55.45;;
33644;SDS011;19986;48.190;16.366;2024-03-07T00:21:02;57.15;;;53.45;;
33644;SDS011;19986;48.190;16.366;2024-03-07T00:23:28;57.20;;;53.30;;
33644;SDS011;19986;48.190;16.366;2024-03-07T00:25:54;58.53;;;54.83;;
33644;SDS011;19986;48.190;16.366;2024-03-07T00:28:20;57.58;;;53.90;;
33644;SDS011;19986;48.190;16.366;2024-03-07T00:30:45;56.00;;;52.50;;
33644;SDS011;19986;48.190;16.366;2024-03-07T00:33:12;58.85;;;55.05;;
33644;SDS011;19986;48.190;16.366;2024-03-07T00:35:38;57.65;;;54.05;;
33644;SDS011;19986;48.190;16.366;2024-03-07T00:38:04;58.47;;;54.78;;
33644;SDS011;19986;48.190;16.366;2024-03-07T00:40:30;57.35;;;53.75;;
33644;SDS011;19986;48.190;16.366;2024-03-07T00:42:57;59.75;;;55.95;;
33644;SDS011;19986;48.190;16.366;2024-03-07T00:45:25;56.67;;;52.88;;
33644;SDS011;19986;48.190;16.366;2024-03-07T00:47:51;56.38;;;52.65;;
33644;SDS011;19986;48.190;16.366;2024-03-07T00:50:17;58.10;;;54.45;;
33644;SDS011;19986;48.190;16.366;2024-03-07T00:52:43;59.33;;;55.58;;
33644;SDS011;19986;48.190;16.366;2024-03-07T00:55:08;60.15;;;56.30;;
33644;SDS011;19986;48.190;16.366;2024-03-07T00:57:34;55.88;;;52.40;;
33644;SDS011;19986;48.190;16.366;2024-03-07T01:00:01;57.42;;;53.80;;
33644;SDS011;19986;48.190;16.366;2024-03-07T01:02:28;59.40;;;55.55;;
33644;SDS011;19986;48.190;16.366;2024-03-07T01:04:55;54.53;;;51.08;;
33644;SDS011;19986;48.190;16.366;2024-03-07T01:07:21;55.72;;;52.33;;
33644;SDS011;19986;48.190;16.366;2024-03-07T01:09:49;59.28;;;55.60;;
33644;SDS011;19986;48.190;16.366;2024-03-07T01:12:15;56.42;;;52.85;;
33644;SDS011;19986;48.190;16.366;2024-03-07T01:14:40;53.33;;;49.97;;
33644;SDS011;19986;48.190;16.366;2024-03-07T01:17:08;57.72;;;54.15;;
33644;SDS011;19986;48.190;16.366;2024-03-07T01:19:34;57.97;;;54.38;;
33644;SDS011;19986;48.190;16.366;2024-03-07T01:22:00;58.60;;;55.10;;
33644;SDS011;19986;48.190;16.366;2024-03-07T01:24:26;56.38;;;52.88;;
33644;SDS011;19986;48.190;16.366;2024-03-07T01:26:52;59.03;;;55.33;;
33644;SDS011;19986;48.190;16.366;2024-03-07T01:29:18;55.38;;;51.88;;
33644;SDS011;19986;48.190;16.366;2024-03-07T01:31:44;57.83;;;54.17;;
33644;SDS011;19986;48.190;16.366;2024-03-07T01:34:10;53.90;;;50.53;;
33644;SDS011;19986;48.190;16.366;2024-03-07T01:36:37;58.80;;;55.15;;
33644;SDS011;19986;48.190;16.366;2024-03-07T01:39:04;54.40;;;51.00;;
33644;SDS011;19986;48.190;16.366;2024-03-07T01:41:30;57.55;;;53.92;;
33644;SDS011;19986;48.190;16.366;2024-03-07T01:43:56;57.65;;;54.03;;
33644;SDS011;19986;48.190;16.366;2024-03-07T01:46:23;57.42;;;53.75;;
33644;SDS011;19986;48.190;16.366;2024-03-07T01:48:50;56.47;;;52.92;;
33644;SDS011;19986;48.190;16.366;2024-03-07T01:51:17;56.65;;;53.08;;
33644;SDS011;19986;48.190;16.366;2024-03-07T01:53:44;57.00;;;53.40;;
33644;SDS011;19986;48.190;16.366;2024-03-07T01:56:11;57.35;;;53.75;;
33644;SDS011;19986;48.190;16.366;2024-03-07T01:58:39;57.38;;;53.67;;
33644;SDS011;19986;48.190;16.366;2024-03-07T02:01:06;57.70;;;54.10;;
33644;SDS011;19986;48.190;16.366;2024-03-07T02:03:35;56.58;;;53.03;;
33644;SDS011;19986;48.190;16.366;2024-03-07T02:06:02;56.15;;;52.50;;
33644;SDS011;19986;48.190;16.366;2024-03-07T02:08:32;57.28;;;53.50;;
33644;SDS011;19986;48.190;16.366;2024-03-07T02:11:00;59.20;;;55.40;;
33644;SDS011;19986;48.190;16.366;2024-03-07T02:13:27;57.28;;;53.63;;
33644;SDS011;19986;48.190;16.366;2024-03-07T02:15:53;58.88;;;54.88;;
33644;SDS011;19986;48.190;16.366;2024-03-07T02:18:23;60.30;;;56.20;;
33644;SDS011;19986;48.190;16.366;2024-03-07T02:20:49;61.35;;;57.05;;
33644;SDS011;19986;48.190;16.366;2024-03-07T02:23:17;63.08;;;58.85;;
33644;SDS011;19986;48.190;16.366;2024-03-07T02:25:43;61.05;;;56.95;;
33644;SDS011;19986;48.190;16.366;2024-03-07T02:28:10;61.92;;;57.40;;
33644;SDS011;19986;48.190;16.366;2024-03-07T02:30:37;62.75;;;58.42;;
33644;SDS011;19986;48.190;16.366;2024-03-07T02:33:04;61.10;;;56.80;;
33644;SDS011;19986;48.190;16.366;2024-03-07T02:35:35;60.35;;;56.05;;
33644;SDS011;19986;48.190;16.366;2024-03-07T02:38:07;61.13;;;56.92;;
33644;SDS011;19986;48.190;16.366;2024-03-07T02:40:35;60.80;;;56.67;;
33644;SDS011;19986;48.190;16.366;2024-03-07T02:43:01;59.22;;;55.03;;
33644;SDS011;19986;48.190;16.366;2024-03-07T02:45:30;61.30;;;57.10;;
33644;SDS011;19986;48.190;16.366;2024-03-07T02:47:56;60.40;;;56.20;;
33644;SDS011;19986;48.190;16.366;2024-03-07T02:50:22;59.42;;;55.15;;
33644;SDS011;19986;48.190;16.366;2024-03-07T02:52:49;60.15;;;55.88;;
33644;SDS011;19986;48.190;16.366;2024-03-07T02:55:18;61.78;;;57.58;;
33644;SDS011;19986;48.190;16.366;2024-03-07T02:57:45;60.45;;;56.35;;
33644;SDS011;19986;48.190;16.366;2024-03-07T03:00:11;61.72;;;57.28;;
33644;SDS011;19986;48.190;16.366;2024-03-07T03:02:51;59.17;;;55.03;;
33644;SDS011;19986;48.190;16.366;2024-03-07T03:05:18;58.92;;;54.97;;
33644;SDS011;19986;48.190;16.366;2024-03-07T03:07:44;59.13;;;55.13;;
33644;SDS011;19986;48.190;16.366;2024-03-07T03:10:19;58.50;;;54.60;;
33644;SDS011;19986;48.190;16.366;2024-03-07T03:12:55;60.13;;;56.05;;
33644;SDS011;19986;48.190;16.366;2024-03-07T03:15:26;61.22;;;57.20;;
33644;SDS011;19986;48.190;16.366;2024-03-07T03:17:53;57.60;;;53.63;;
33644;SDS011;19986;48.190;16.366;2024-03-07T03:20:20;57.00;;;52.97;;
33644;SDS011;19986;48.190;16.366;2024-03-07T03:23:02;56.25;;;52.58;;
33644;SDS011;19986;48.190;16.366;2024-03-07T03:25:28;56.70;;;52.92;;
33644;SDS011;19986;48.190;16.366;2024-03-07T03:27:55;57.92;;;54.05;;
33644;SDS011;19986;48.190;16.366;2024-03-07T03:30:21;57.08;;;53.33;;
33644;SDS011;19986;48.190;16.366;2024-03-07T03:32:48;56.65;;;52.78;;
33644;SDS011;19986;48.190;16.366;2024-03-07T03:35:14;58.95;;;54.97;;
33644;SDS011;19986;48.190;16.366;2024-03-07T03:37:43;56.35;;;52.65;;
33644;SDS011;19986;48.190;16.366;2024-03-07T03:40:10;56.55;;;52.85;;
33644;SDS011;19986;48.190;16.366;2024-03-07T03:42:40;59.80;;;56.00;;
33644;SDS011;19986;48.190;16.366;2024-03-07T03:45:08;54.88;;;51.25;;
33644;SDS011;19986;48.190;16.366;2024-03-07T03:47:36;56.42;;;52.80;;
33644;SDS011;19986;48.190;16.366;2024-03-07T03:50:10;56.88;;;53.17;;
33644;SDS011;19986;48.190;16.366;2024-03-07T03:52:39;57.67;;;53.92;;
33644;SDS011;19986;48.190;16.366;2024-03-07T03:55:06;57.30;;;53.60;;
33644;SDS011;19986;48.190;16.366;2024-03-07T03:57:40;56.03;;;52.42;;
33644;SDS011;19986;48.190;16.366;2024-03-07T04:00:08;55.20;;;51.63;;
33644;SDS011;19986;48.190;16.366;2024-03-07T04:02:41;58.00;;;54.33;;
33644;SDS011;19986;48.190;16.366;2024-03-07T04:05:11;55.33;;;51.80;;
33644;SDS011;19986;48.190;16.366;2024-03-07T04:07:39;55.72;;;52.00;;
33644;SDS011;19986;48.190;16.366;2024-03-07T04:10:05;55.13;;;51.58;;
33644;SDS011;19986;48.190;16.366;2024-03-07T04:12:35;53.78;;;50.40;;
33644;SDS011;19986;48.190;16.366;2024-03-07T04:15:20;55.97;;;52.28;;
33644;SDS011;19986;48.190;16.366;2024-03-07T04:17:52;56.22;;;52.70;;
33644;SDS011;19986;48.190;16.366;2024-03-07T04:20:18;56.13;;;52.53;;
33644;SDS011;19986;48.190;16.366;2024-03-07T04:22:44;55.80;;;52.38;;
33644;SDS011;19986;48.190;16.366;2024-03-07T04:25:14;55.13;;;51.65;;
33644;SDS011;19986;48.190;16.366;2024-03-07T04:27:41;55.35;;;51.75;;
33644;SDS011;19986;48.190;16.366;2024-03-07T04:30:07;56.17;;;52.75;;
33644;SDS011;19986;48.190;16.366;2024-03-07T04:32:37;57.25;;;53.67;;
33644;SDS011;19986;48.190;16.366;2024-03-07T04:35:04;57.58;;;53.97;;
33644;SDS011;19986;48.190;16.366;2024-03-07T04:37:36;53.67;;;50.28;;
33644;SDS011;19986;48.190;16.366;2024-03-07T04:40:06;55.40;;;51.90;;
33644;SDS011;19986;48.190;16.366;2024-03-07T04:42:48;55.22;;;51.63;;
33644;SDS011;19986;48.190;16.366;2024-03-07T04:45:20;55.10;;;51.50;;
33644;SDS011;19986;48.190;16.366;2024-03-07T04:47:47;54.85;;;51.55;;
33644;SDS011;19986;48.190;16.366;2024-03-07T04:50:14;54.03;;;50.53;;
33644;SDS011;19986;48.190;16.366;2024-03-07T04:52:43;57.15;;;53.47;;
33644;SDS011;19986;48.190;16.366;2024-03-07T04:55:10;55.03;;;51.63;;
33644;SDS011;19986;48.190;16.366;2024-03-07T04:57:37;56.35;;;52.85;;
33644;SDS011;19986;48.190;16.366;2024-03-07T05:00:06;57.10;;;53.60;;
33644;SDS011;19986;48.190;16.366;2024-03-07T05:02:33;53.17;;;49.97;;
33644;SDS011;19986;48.190;16.366;2024-03-07T05:04:59;57.00;;;53.50;;
33644;SDS011;19986;48.190;16.366;2024-03-07T05:07:25;56.13;;;52.58;;
33644;SDS011;19986;48.190;16.366;2024-03-07T05:09:54;54.47;;;51.08;;
33644;SDS011;19986;48.190;16.366;2024-03-07T05:12:20;52.55;;;49.25;;
33644;SDS011;19986;48.190;16.366;2024-03-07T05:14:46;55.65;;;52.20;;
33644;SDS011;19986;48.190;16.366;2024-03-07T05:17:12;55.75;;;52.25;;
33644;SDS011;19986;48.190;16.366;2024-03-07T05:19:38;55.38;;;51.90;;
33644;SDS011;19986;48.190;16.366;2024-03-07T05:22:04;57.25;;;53.63;;
33644;SDS011;19986;48.190;16.366;2024-03-07T05:24:39;55.78;;;52.25;;
33644;SDS011;19986;48.190;16.366;2024-03-07T05:27:05;56.05;;;52.58;;
33644;SDS011;19986;48.190;16.366;2024-03-07T05:29:33;53.72;;;50.33;;
33644;SDS011;19986;48.190;16.366;2024-03-07T05:32:19;56.80;;;53.30;;
33644;SDS011;19986;48.190;16.366;2024-03-07T05:34:46;55.88;;;52.33;;
33644;SDS011;19986;48.190;16.366;2024-03-07T05:37:12;55.63;;;52.10;;
33644;SDS011;19986;48.190;16.366;2024-03-07T05:39:38;57.53;;;53.75;;
33644;SDS011;19986;48.190;16.366;2024-03-07T05:42:04;58.08;;;54.47;;
33644;SDS011;19986;48.190;16.366;2024-03-07T05:44:32;56.58;;;53.03;;
33644;SDS011;19986;48.190;16.366;2024-03-07T05:46:58;55.38;;;51.70;;
33644;SDS011;19986;48.190;16.366;2024-03-07T05:49:26;57.58;;;53.97;;
33644;SDS011;19986;48.190;16.366;2024-03-07T05:51:53;56.15;;;52.15;;
33644;SDS011;19986;48.190;16.366;2024-03-07T05:54:19;56.67;;;53.20;;
33644;SDS011;19986;48.190;16.366;2024-03-07T05:56:45;58.13;;;54.17;;
33644;SDS011;19986;48.190;16.366;2024-03-07T05:59:11;56.97;;;53.47;;
33644;SDS011;19986;48.190;16.366;2024-03-07T06:01:37;56.70;;;53.20;;
33644;SDS011;19986;48.190;16.366;2024-03-07T06:04:06;55.25;;;51.70;;
33644;SDS011;19986;48.190;16.366;2024-03-07T06:06:33;58.22;;;54.58;;
33644;SDS011;19986;48.190;16.366;2024-03-07T06:09:03;55.92;;;52.42;;
33644;SDS011;19986;48.190;16.366;2024-03-07T06:11:33;56.72;;;53.33;;
33644;SDS011;19986;48.190;16.366;2024-03-07T06:14:01;56.92;;;53.42;;
33644;SDS011;19986;48.190;16.366;2024-03-07T06:16:40;56.92;;;53.22;;
33644;SDS011;19986;48.190;16.366;2024-03-07T06:19:08;64.05;;;58.70;;
33644;SDS011;19986;48.190;16.366;2024-03-07T06:21:36;59.08;;;55.38;;
33644;SDS011;19986;48.190;16.366;2024-03-07T06:24:07;57.95;;;54.15;;
33644;SDS011;19986;48.190;16.366;2024-03-07T06:26:36;67.85;;;62.28;;
33644;SDS011;19986;48.190;16.366;2024-03-07T06:29:11;61.05;;;56.22;;
33644;SDS011;19986;48.190;16.366;2024-03-07T06:31:39;55.47;;;51.63;;
33644;SDS011;19986;48.190;16.366;2024-03-07T06:34:08;56.30;;;52.90;;
33644;SDS011;19986;48.190;16.366;2024-03-07T06:36:35;58.28;;;54.50;;
33644;SDS011;19986;48.190;16.366;2024-03-07T06:39:07;54.47;;;50.85;;
33644;SDS011;19986;48.190;16.366;2024-03-07T06:41:40;58.42;;;54.83;;
33644;SDS011;19986;48.190;16.366;2024-03-07T06:44:10;58.28;;;54.47;;
33644;SDS011;19986;48.190;16.366;2024-03-07T06:46:37;55.47;;;52.08;;
33644;SDS011;19986;48.190;16.366;2024-03-07T06:49:03;57.97;;;54.28;;
33644;SDS011;19986;48.190;16.366;2024-03-07T06:51:35;55.92;;;52.22;;
33644;SDS011;19986;48.190;16.366;2024-03-07T06:54:01;57.55;;;53.95;;
33644;SDS011;19986;48.190;16.366;2024-03-07T06:56:30;56.65;;;53.15;;
33644;SDS011;19986;48.190;16.366;2024-03-07T06:59:02;57.85;;;54.25;;
33644;SDS011;19986;48.190;16.366;2024-03-07T07:01:30;58.83;;;55.13;;
33644;SDS011;19986;48.190;16.366;2024-03-07T07:03:59;56.20;;;52.80;;
33644;SDS011;19986;48.190;16.366;2024-03-07T07:06:34;57.05;;;53.40;;
33644;SDS011;19986;48.190;16.366;2024-03-07T07:09:01;57.25;;;53.38;;
33644;SDS011;19986;48.190;16.366;2024-03-07T07:11:28;58.13;;;54.40;;
33644;SDS011;19986;48.190;16.366;2024-03-07T07:13:55;56.78;;;53.22;;
33644;SDS011;19986;48.190;16.366;2024-03-07T07:16:39;55.58;;;51.95;;
33644;SDS011;19986;48.190;16.366;2024-03-07T07:19:10;55.58;;;52.08;;
33644;SDS011;19986;48.190;16.366;2024-03-07T07:21:38;57.92;;;54.22;;
33644;SDS011;19986;48.190;16.366;2024-03-07T07:24:07;57.50;;;53.70;;
33644;SDS011;19986;48.190;16.366;2024-03-07T07:26:33;60.08;;;56.08;;
33644;SDS011;19986;48.190;16.366;2024-03-07T07:29:14;57.65;;;53.90;;
33644;SDS011;19986;48.190;16.366;2024-03-07T07:31:40;56.70;;;53.03;;
33644;SDS011;19986;48.190;16.366;2024-03-07T07:34:06;56.60;;;53.08;;
33644;SDS011;19986;48.190;16.366;2024-03-07T07:36:32;58.00;;;54.35;;
33644;SDS011;19986;48.190;16.366;2024-03-07T07:38:58;56.50;;;52.70;;
33644;SDS011;19986;48.190;16.366;2024-03-07T07:41:28;58.20;;;54.50;;
33644;SDS011;19986;48.190;16.366;2024-03-07T07:43:56;56.85;;;53.25;;
33644;SDS011;19986;48.190;16.366;2024-03-07T07:46:22;59.20;;;55.40;;
33644;SDS011;19986;48.190;16.366;2024-03-07T07:48:48;55.25;;;51.80;;
33644;SDS011;19986;48.190;16.366;2024-03-07T07:51:14;53.58;;;50.22;;
33644;SDS011;19986;48.190;16.366;2024-03-07T07:53:40;55.47;;;52.03;;
33644;SDS011;19986;48.190;16.366;2024-03-07T07:56:07;56.00;;;52.30;;
33644;SDS011;19986;48.190;16.366;2024-03-07T07:58:34;57.05;;;53.35;;
33644;SDS011;19986;48.190;16.366;2024-03-07T08:01:01;57.42;;;53.72;;
33644;SDS011;19986;48.190;16.366;2024-03-07T08:03:30;54.80;;;51.22;;
33644;SDS011;19986;48.190;16.366;2024-03-07T08:05:59;55.47;;;52.03;;
33644;SDS011;19986;48.190;16.366;2024-03-07T08:08:25;56.85;;;53.20;;
33644;SDS011;19986;48.190;16.366;2024-03-07T08:10:51;59.65;;;55.95;;
33644;SDS011;19986;48.190;16.366;2024-03-07T08:13:17;59.17;;;55.25;;
33644;SDS011;19986;48.190;16.366;2024-03-07T08:15:43;55.85;;;52.25;;
33644;SDS011;19986;48.190;16.366;2024-03-07T08:18:09;56.53;;;52.83;;
33644;SDS011;19986;48.190;16.366;2024-03-07T08:20:35;56.10;;;52.53;;
33644;SDS011;19986;48.190;16.366;2024-03-07T08:23:01;56.05;;;52.58;;
33644;SDS011;19986;48.190;16.366;2024-03-07T08:25:28;54.72;;;51.35;;
33644;SDS011;19986;48.190;16.366;2024-03-07T08:27:55;52.72;;;49.45;;
33644;SDS011;19986;48.190;16.366;2024-03-07T08:30:21;55.22;;;51.88;;
33644;SDS011;19986;48.190;16.366;2024-03-07T08:32:49;52.78;;;49.50;;
33644;SDS011;19986;48.190;16.366;2024-03-07T08:35:19;56.33;;;52.72;;
33644;SDS011;19986;48.190;16.366;2024-03-07T08:37:46;53.85;;;50.55;;
33644;SDS011;19986;48.190;16.366;2024-03-07T08:40:25;54.92;;;51.47;;
33644;SDS011;19986;48.190;16.366;2024-03-07T08:42:59;53.47;;;50.17;;
33644;SDS011;19986;48.190;16.366;2024-03-07T08:45:28;56.83;;;53.33;;
33644;SDS011;19986;48.190;16.366;2024-03-07T08:47:58;52.35;;;49.25;;
33644;SDS011;19986;48.190;16.366;2024-03-07T08:50:25;55.75;;;52.45;;
33644;SDS011;19986;48.190;16.366;2024-03-07T08:52:53;55.20;;;51.80;;
33644;SDS011;19986;48.190;16.366;2024-03-07T08:55:20;57.28;;;53.78;;
33644;SDS011;19986;48.190;16.366;2024-03-07T08:57:47;54.95;;;51.55;;
33644;SDS011;19986;48.190;16.366;2024-03-07T09:00:15;55.15;;;51.67;;
33644;SDS011;19986;48.190;16.366;2024-03-07T09:02:51;51.95;;;48.70;;
33644;SDS011;19986;48.190;16.366;2024-03-07T09:05:25;54.88;;;51.20;;
33644;SDS011;19986;48.190;16.366;2024-03-07T09:07:52;56.70;;;53.28;;
33644;SDS011;19986;48.190;16.366;2024-03-07T09:10:19;54.28;;;50.88;;
33644;SDS011;19986;48.190;16.366;2024-03-07T09:12:46;55.28;;;51.42;;
33644;SDS011;19986;48.190;16.366;2024-03-07T09:15:15;56.38;;;52.80;;
33644;SDS011;19986;48.190;16.366;2024-03-07T09:17:49;56.55;;;52.78;;
33644;SDS011;19986;48.190;16.366;2024-03-07T09:20:15;57.45;;;53.50;;
33644;SDS011;19986;48.190;16.366;2024-03-07T09:22:41;58.78;;;54.97;;
33644;SDS011;19986;48.190;16.366;2024-03-07T09:25:08;56.65;;;52.95;;
33644;SDS011;19986;48.190;16.366;2024-03-07T09:27:36;56.47;;;52.83;;
33644;SDS011;19986;48.190;16.366;2024-03-07T09:30:03;57.53;;;53.75;;
33644;SDS011;19986;48.190;16.366;2024-03-07T09:32:30;55.75;;;52.25;;
33644;SDS011;19986;48.190;16.366;2024-03-07T09:35:06;54.55;;;51.13;;
33644;SDS011;19986;48.190;16.366;2024-03-07T09:37:37;56.10;;;52.47;;
33644;SDS011;19986;48.190;16.366;2024-03-07T09:40:07;54.60;;;51.20;;
33644;SDS011;19986;48.190;16.366;2024-03-07T09:42:34;55.33;;;51.92;;
33644;SDS011;19986;48.190;16.366;2024-03-07T09:45:06;57.10;;;53.60;;
33644;SDS011;19986;48.190;16.366;2024-03-07T09:47:38;57.20;;;53.40;;
33644;SDS011;19986;48.190;16.366;2024-03-07T09:50:05;55.22;;;51.83;;
33644;SDS011;19986;48.190;16.366;2024-03-07T09:52:33;55.35;;;51.65;;
33644;SDS011;19986;48.190;16.366;2024-03-07T09:55:01;54.88;;;51.47;;
33644;SDS011;19986;48.190;16.366;2024-03-07T09:57:29;55.53;;;52.00;;
33644;SDS011;19986;48.190;16.366;2024-03-07T09:59:58;54.60;;;51.10;;
33644;SDS011;19986;48.190;16.366;2024-03-07T10:02:31;57.60;;;53.80;;
33644;SDS011;19986;48.190;16.366;2024-03-07T10:05:01;56.80;;;53.00;;
33644;SDS011;19986;48.190;16.366;2024-03-07T10:07:45;57.92;;;53.83;;
33644;SDS011;19986;48.190;16.366;2024-03-07T10:10:12;58.08;;;54.25;;
33644;SDS011;19986;48.190;16.366;2024-03-07T10:12:38;58.22;;;54.33;;
33644;SDS011;19986;48.190;16.366;2024-03-07T10:15:05;57.45;;;53.63;;
33644;SDS011;19986;48.190;16.366;2024-03-07T10:17:31;58.30;;;54.33;;
33644;SDS011;19986;48.190;16.366;2024-03-07T10:20:03;57.92;;;53.88;;
33644;SDS011;19986;48.190;16.366;2024-03-07T10:22:37;58.17;;;54.17;;
33644;SDS011;19986;48.190;16.366;2024-03-07T10:25:04;59.75;;;55.35;;
33644;SDS011;19986;48.190;16.366;2024-03-07T10:27:30;60.75;;;56.55;;
33644;SDS011;19986;48.190;16.366;2024-03-07T10:29:57;62.17;;;57.88;;
33644;SDS011;19986;48.190;16.366;2024-03-07T10:32:23;60.67;;;56.47;;
33644;SDS011;19986;48.190;16.366;2024-03-07T10:34:50;60.55;;;56.42;;
33644;SDS011;19986;48.190;16.366;2024-03-07T10:37:17;58.95;;;54.67;;
33644;SDS011;19986;48.190;16.366;2024-03-07T10:39:46;59.67;;;55.50;;
33644;SDS011;19986;48.190;16.366;2024-03-07T10:42:16;56.25;;;52.15;;
33644;SDS011;19986;48.190;16.366;2024-03-07T10:44:44;59.13;;;54.80;;
33644;SDS011;19986;48.190;16.366;2024-03-07T10:47:17;55.72;;;51.67;;
33644;SDS011;19986;48.190;16.366;2024-03-07T10:50:02;57.00;;;53.15;;
33644;SDS011;19986;48.190;16.366;2024-03-07T10:52:48;58.20;;;54.20;;
33644;SDS011;19986;48.190;16.366;2024-03-07T11:01:10;60.75;;;56.35;;
33644;SDS011;19986;48.190;16.366;2024-03-07T11:03:38;61.50;;;57.03;;
33644;SDS011;19986;48.190;16.366;2024-03-07T11:06:08;60.67;;;56.47;;
33644;SDS011;19986;48.190;16.366;2024-03-07T11:08:39;64.68;;;60.03;;
33644;SDS011;19986;48.190;16.366;2024-03-07T11:11:05;60.42;;;55.90;;
33644;SDS011;19986;48.190;16.366;2024-03-07T11:13:33;63.65;;;58.85;;
33644;SDS011;19986;48.190;16.366;2024-03-07T11:16:00;63.83;;;59.33;;
33644;SDS011;19986;48.190;16.366;2024-03-07T11:18:30;60.95;;;56.65;;
33644;SDS011;19986;48.190;16.366;2024-03-07T11:20:57;61.85;;;57.45;;
33644;SDS011;19986;48.190;16.366;2024-03-07T11:26:01;64.10;;;59.10;;
33644;SDS011;19986;48.190;16.366;2024-03-07T11:28:35;62.20;;;57.40;;
33644;SDS011;19986;48.190;16.366;2024-03-07T11:31:15;61.58;;;57.08;;
33644;SDS011;19986;48.190;16.366;2024-03-07T11:34:13;61.90;;;57.20;;
33644;SDS011;19986;48.190;16.366;2024-03-07T11:36:48;64.78;;;59.63;;
33644;SDS011;19986;48.190;16.366;2024-03-07T11:39:40;67.93;;;62.55;;
33644;SDS011;19986;48.190;16.366;2024-03-07T11:42:09;64.07;;;59.17;;
33644;SDS011;19986;48.190;16.366;2024-03-07T11:44:45;70.20;;;64.82;;
33644;SDS011;19986;48.190;16.366;2024-03-07T11:47:14;64.68;;;59.88;;
33644;SDS011;19986;48.190;16.366;2024-03-07T11:49:43;64.03;;;59.05;;
33644;SDS011;19986;48.190;16.366;2024-03-07T11:52:14;62.80;;;58.08;;
33644;SDS011;19986;48.190;16.366;2024-03-07T11:54:42;66.40;;;61.38;;
33644;SDS011;19986;48.190;16.366;2024-03-07T11:57:12;68.82;;;63.42;;
33644;SDS011;19986;48.190;16.366;2024-03-07T11:59:41;66.63;;;61.63;;
33644;SDS011;19986;48.190;16.366;2024-03-07T12:02:12;67.30;;;62.53;;
33644;SDS011;19986;48.190;16.366;2024-03-07T12:04:40;67.28;;;62.08;;
33644;SDS011;19986;48.190;16.366;2024-03-07T12:07:07;67.93;;;62.78;;
33644;SDS011;19986;48.190;16.366;2024-03-07T12:09:39;67.47;;;62.03;;
33644;SDS011;19986;48.190;16.366;2024-03-07T12:12:05;69.05;;;63.70;;
33644;SDS011;19986;48.190;16.366;2024-03-07T12:14:32;64.20;;;59.13;;
33644;SDS011;19986;48.190;16.366;2024-03-07T12:17:00;64.30;;;59.20;;
33644;SDS011;19986;48.190;16.366;2024-03-07T12:19:32;64.28;;;59.47;;
33644;SDS011;19986;48.190;16.366;2024-03-07T12:22:02;65.25;;;59.95;;
33644;SDS011;19986;48.190;16.366;2024-03-07T12:24:30;65.03;;;60.05;;
33644;SDS011;19986;48.190;16.366;2024-03-07T12:29:52;67.55;;;62.28;;
33644;SDS011;19986;48.190;16.366;2024-03-07T12:32:22;66.25;;;61.05;;
33644;SDS011;19986;48.190;16.366;2024-03-07T12:34:52;66.57;;;61.40;;
33644;SDS011;19986;48.190;16.366;2024-03-07T12:37:18;64.97;;;59.95;;
33644;SDS011;19986;48.190;16.366;2024-03-07T12:39:51;67.13;;;61.70;;
33644;SDS011;19986;48.190;16.366;2024-03-07T12:42:26;65.47;;;60.35;;
33644;SDS011;19986;48.190;16.366;2024-03-07T12:44:55;68.20;;;62.67;;
33644;SDS011;19986;48.190;16.366;2024-03-07T12:47:24;65.35;;;60.28;;
33644;SDS011;19986;48.190;16.366;2024-03-07T12:49:53;67.95;;;62.75;;
33644;SDS011;19986;48.190;16.366;2024-03-07T12:52:20;64.15;;;59.25;;
33644;SDS011;19986;48.190;16.366;2024-03-07T12:54:46;64.13;;;59.33;;
33644;SDS011;19986;48.190;16.366;2024-03-07T12:57:28;65.30;;;60.42;;
33644;SDS011;19986;48.190;16.366;2024-03-07T12:59:54;65.10;;;60.20;;
33644;SDS011;19986;48.190;16.366;2024-03-07T13:02:20;66.03;;;60.83;;
33644;SDS011;19986;48.190;16.366;2024-03-07T13:04:51;69.13;;;63.90;;
33644;SDS011;19986;48.190;16.366;2024-03-07T13:07:17;67.10;;;61.95;;
33644;SDS011;19986;48.190;16.366;2024-03-07T13:09:43;67.18;;;61.88;;
33644;SDS011;19986;48.190;16.366;2024-03-07T13:12:10;68.47;;;63.17;;
33644;SDS011;19986;48.190;16.366;2024-03-07T13:14:36;67.40;;;62.05;;
33644;SDS011;19986;48.190;16.366;2024-03-07T13:17:02;67.43;;;62.25;;
33644;SDS011;19986;48.190;16.366;2024-03-07T13:19:32;66.00;;;60.72;;
33644;SDS011;19986;48.190;16.366;2024-03-07T13:21:58;70.57;;;64.78;;
33644;SDS011;19986;48.190;16.366;2024-03-07T13:24:25;67.30;;;62.08;;
33644;SDS011;19986;48.190;16.366;2024-03-07T13:26:54;69.10;;;63.67;;
33644;SDS011;19986;48.190;16.366;2024-03-07T13:29:20;66.63;;;61.42;;
33644;SDS011;19986;48.190;16.366;2024-03-07T13:31:50;68.30;;;63.10;;
33644;SDS011;19986;48.190;16.366;2024-03-07T13:34:17;65.97;;;60.97;;
33644;SDS011;19986;48.190;16.366;2024-03-07T13:36:44;67.22;;;62.22;;
33644;SDS011;19986;48.190;16.366;2024-03-07T13:39:11;66.38;;;61.08;;
33644;SDS011;19986;48.190;16.366;2024-03-07T13:41:42;66.13;;;61.22;;
33644;SDS011;19986;48.190;16.366;2024-03-07T13:44:10;67.20;;;62.03;;
33644;SDS011;19986;48.190;16.366;2024-03-07T13:46:37;74.45;;;67.55;;
33644;SDS011;19986;48.190;16.366;2024-03-07T13:49:03;68.53;;;63.20;;
33644;SDS011;19986;48.190;16.366;2024-03-07T13:51:33;67.97;;;62.67;;
33644;SDS011;19986;48.190;16.366;2024-03-07T13:54:04;66.22;;;61.05;;
33644;SDS011;19986;48.190;16.366;2024-03-07T13:56:46;68.65;;;63.40;;
33644;SDS011;19986;48.190;16.366;2024-03-07T13:59:24;65.30;;;60.20;;
33644;SDS011;19986;48.190;16.366;2024-03-07T14:02:23;69.40;;;63.97;;
33644;SDS011;19986;48.190;16.366;2024-03-07T14:10:32;64.93;;;59.92;;
33644;SDS011;19986;48.190;16.366;2024-03-07T14:20:35;64.97;;;60.03;;
33644;SDS011;19986;48.190;16.366;2024-03-07T14:25:54;63.80;;;59.10;;
33644;SDS011;19986;48.190;16.366;2024-03-07T14:31:14;65.07;;;60.28;;
33644;SDS011;19986;48.190;16.366;2024-03-07T14:36:32;64.55;;;59.63;;
33644;SDS011;19986;48.190;16.366;2024-03-07T14:39:22;66.20;;;61.28;;
33644;SDS011;19986;48.190;16.366;2024-03-07T14:41:52;64.75;;;59.75;;
33644;SDS011;19986;48.190;16.366;2024-03-07T14:44:23;64.72;;;59.95;;
33644;SDS011;19986;48.190;16.366;2024-03-07T14:46:53;64.65;;;59.83;;
33644;SDS011;19986;48.190;16.366;2024-03-07T14:49:25;63.95;;;59.17;;
33644;SDS011;19986;48.190;16.366;2024-03-07T14:51:53;66.78;;;61.67;;